Time;durP1;ratioP1;P1;durP2;ratioP2;P2;SDS_P1;SDS_P2;PMS_P1;PMS_P2;Temp;Humidity;BMP_temperature;BMP_pressure;BME280_temperature;BME280_humidity;BME280_pressure;Samples;Min_cycle;Max_cycle;Signal;HPM_P1;HPM_P2
2022/04/08 00:00:40;;;;;;;8.95;3.15;;;;;;;;;;5049511;28;20037;-80
2022/04/08 00:03:06;;;;;;;5.63;3.00;;;;;;;;;;5047599;28;20496;-80
2022/04/08 00:05:32;;;;;;;5.95;2.50;;;;;;;;;;5044468;28;20116;-81
2022/04/08 00:07:58;;;;;;;8.70;2.20;;;;;;;;;;5038137;28;20044;-81
2022/04/08 00:10:24;;;;;;;5.05;1.27;;;;;;;;;;5055108;28;20064;-81
2022/04/08 00:12:50;;;;;;;3.42;1.15;;;;;;;;;;5062938;28;20032;-81
2022/04/08 00:15:16;;;;;;;2.70;1.02;;;;;;;;;;5053043;28;20032;-81
2022/04/08 00:17:42;;;;;;;5.10;1.40;;;;;;;;;;5053002;28;20048;-81
2022/04/08 00:20:09;;;;;;;2.50;0.73;;;;;;;;;;5056558;28;20393;-81
2022/04/08 00:22:42;;;;;;;2.97;1.10;;;;;;;;;;5073404;28;20025;-81
2022/04/08 00:25:09;;;;;;;8.88;4.50;;;;;;;;;;5053997;28;20377;-80
2022/04/08 00:27:35;;;;;;;8.45;4.18;;;;;;;;;;5047833;28;20052;-80
2022/04/08 00:30:01;;;;;;;9.57;5.50;;;;;;;;;;5036809;28;20029;-81
2022/04/08 00:32:27;;;;;;;9.40;5.68;;;;;;;;;;5039650;28;20059;-81
2022/04/08 00:34:53;;;;;;;10.95;7.13;;;;;;;;;;5053223;28;20064;-81
2022/04/08 00:37:19;;;;;;;9.55;5.65;;;;;;;;;;5039919;28;20041;-81
2022/04/08 00:39:45;;;;;;;5.90;2.90;;;;;;;;;;5046988;28;20040;-80
2022/04/08 00:42:14;;;;;;;5.35;1.90;;;;;;;;;;5050381;28;20032;-80
2022/04/08 00:44:40;;;;;;;4.13;1.48;;;;;;;;;;5032926;28;20628;-81
2022/04/08 00:47:06;;;;;;;8.00;2.88;;;;;;;;;;5032566;28;20029;-80
2022/04/08 00:49:34;;;;;;;6.18;3.08;;;;;;;;;;5044001;28;20025;-81
2022/04/08 00:52:01;;;;;;;4.05;1.90;;;;;;;;;;5032992;28;20080;-81
2022/04/08 00:54:30;;;;;;;3.45;1.05;;;;;;;;;;5042636;28;20068;-80
2022/04/08 00:56:56;;;;;;;2.42;1.02;;;;;;;;;;5052808;28;20086;-81
2022/04/08 00:59:22;;;;;;;4.50;1.27;;;;;;;;;;5051175;28;20166;-81
2022/04/08 01:01:48;;;;;;;5.68;2.40;;;;;;;;;;5053120;28;20043;-80
2022/04/08 01:04:14;;;;;;;5.72;2.40;;;;;;;;;;5057184;28;20041;-80
2022/04/08 01:06:42;;;;;;;8.57;2.78;;;;;;;;;;5072954;28;20043;-81
2022/04/08 01:09:08;;;;;;;6.55;2.42;;;;;;;;;;5065859;28;20056;-80
2022/04/08 01:11:34;;;;;;;4.38;1.92;;;;;;;;;;5049285;28;20029;-80
2022/04/08 01:14:10;;;;;;;5.22;1.80;;;;;;;;;;5052566;28;20474;-80
2022/04/08 01:16:36;;;;;;;4.45;1.40;;;;;;;;;;5051937;28;20109;-81
2022/04/08 01:19:03;;;;;;;6.75;1.85;;;;;;;;;;5036403;28;20082;-81
2022/04/08 01:21:29;;;;;;;3.50;1.38;;;;;;;;;;5051360;28;20069;-80
2022/04/08 01:23:56;;;;;;;5.40;1.92;;;;;;;;;;5052293;28;20356;-80
2022/04/08 01:26:22;;;;;;;5.82;1.90;;;;;;;;;;5051644;28;20036;-81
2022/04/08 01:28:49;;;;;;;3.92;1.35;;;;;;;;;;5052457;28;20033;-80
2022/04/08 01:31:15;;;;;;;2.65;0.60;;;;;;;;;;5051833;28;20127;-80
2022/04/08 01:33:41;;;;;;;4.82;1.10;;;;;;;;;;5035564;28;20038;-81
2022/04/08 01:36:07;;;;;;;4.50;1.40;;;;;;;;;;5045628;28;20082;-80
2022/04/08 01:38:33;;;;;;;6.07;1.65;;;;;;;;;;5054864;28;20032;-81
2022/04/08 01:41:00;;;;;;;9.00;2.85;;;;;;;;;;5038361;28;20037;-80
2022/04/08 01:43:26;;;;;;;6.05;1.25;;;;;;;;;;5051344;28;20045;-80
2022/04/08 01:45:52;;;;;;;3.53;1.20;;;;;;;;;;5051195;28;20040;-80
2022/04/08 01:48:18;;;;;;;4.80;1.08;;;;;;;;;;5051386;28;20044;-80
2022/04/08 01:50:44;;;;;;;2.78;0.98;;;;;;;;;;5050986;28;20029;-80
2022/04/08 01:53:10;;;;;;;5.15;1.35;;;;;;;;;;5033900;28;20629;-79
2022/04/08 01:55:36;;;;;;;4.93;1.30;;;;;;;;;;5051426;28;20063;-80
2022/04/08 01:58:05;;;;;;;5.65;1.25;;;;;;;;;;5036521;28;20044;-80
2022/04/08 02:00:31;;;;;;;4.07;0.88;;;;;;;;;;5031639;28;20104;-80
2022/04/08 02:02:57;;;;;;;4.60;1.52;;;;;;;;;;5031578;28;20041;-80
2022/04/08 02:05:24;;;;;;;8.43;4.32;;;;;;;;;;5047502;28;20043;-80
2022/04/08 02:07:53;;;;;;;5.57;2.35;;;;;;;;;;5044995;28;20048;-80
2022/04/08 02:10:19;;;;;;;4.95;1.70;;;;;;;;;;5050709;28;20629;-80
2022/04/08 02:12:45;;;;;;;5.82;1.27;;;;;;;;;;5034799;28;20037;-80
2022/04/08 02:15:11;;;;;;;6.30;1.65;;;;;;;;;;5043205;28;20032;-80
2022/04/08 02:17:37;;;;;;;5.47;1.75;;;;;;;;;;5042886;28;20072;-80
2022/04/08 02:20:08;;;;;;;8.35;1.73;;;;;;;;;;5040555;28;20046;-80
2022/04/08 02:22:35;;;;;;;7.43;1.55;;;;;;;;;;5054780;28;20116;-80
2022/04/08 02:25:02;;;;;;;3.60;1.55;;;;;;;;;;5061203;28;20390;-80
2022/04/08 02:27:28;;;;;;;3.03;1.17;;;;;;;;;;5032252;28;20450;-81
2022/04/08 02:29:56;;;;;;;5.22;1.30;;;;;;;;;;5046207;28;20025;-81
2022/04/08 02:32:22;;;;;;;7.50;1.38;;;;;;;;;;5050297;28;20025;-81
2022/04/08 02:34:50;;;;;;;4.28;2.00;;;;;;;;;;5050512;28;20078;-81
2022/04/08 02:37:16;;;;;;;7.78;2.47;;;;;;;;;;5049835;28;20025;-81
2022/04/08 02:39:42;;;;;;;7.50;2.53;;;;;;;;;;5051066;28;20033;-81
2022/04/08 02:42:08;;;;;;;10.43;3.40;;;;;;;;;;5049797;28;20036;-80
2022/04/08 02:44:34;;;;;;;8.10;2.47;;;;;;;;;;5050285;28;20064;-81
2022/04/08 02:47:01;;;;;;;12.00;2.85;;;;;;;;;;5046757;28;20083;-80
2022/04/08 02:49:27;;;;;;;9.10;2.08;;;;;;;;;;5070634;28;20038;-80
2022/04/08 02:51:53;;;;;;;3.92;1.00;;;;;;;;;;5063386;28;20037;-80
2022/04/08 02:54:19;;;;;;;4.68;1.30;;;;;;;;;;5046088;28;20040;-80
2022/04/08 02:56:45;;;;;;;3.50;1.13;;;;;;;;;;5030692;28;20698;-80
2022/04/08 02:59:11;;;;;;;3.30;1.30;;;;;;;;;;5047471;28;20115;-81
2022/04/08 03:01:38;;;;;;;3.03;1.50;;;;;;;;;;5046570;28;20413;-81
2022/04/08 03:04:06;;;;;;;3.67;1.40;;;;;;;;;;5039521;28;20040;-81
2022/04/08 03:06:32;;;;;;;4.68;2.00;;;;;;;;;;5042462;28;20064;-80
2022/04/08 03:08:58;;;;;;;9.60;3.30;;;;;;;;;;5043065;28;20373;-80
2022/04/08 03:11:24;;;;;;;6.70;2.45;;;;;;;;;;5039367;28;20104;-80
2022/04/08 03:13:50;;;;;;;9.65;3.33;;;;;;;;;;5050735;28;20028;-80
2022/04/08 03:16:16;;;;;;;9.63;4.60;;;;;;;;;;5056303;28;20033;-81
2022/04/08 03:18:42;;;;;;;10.98;7.32;;;;;;;;;;5041700;28;20075;-80
2022/04/08 03:21:08;;;;;;;9.43;6.32;;;;;;;;;;5049702;28;20036;-80
2022/04/08 03:23:34;;;;;;;9.80;5.75;;;;;;;;;;5043375;28;20025;-80
2022/04/08 03:26:00;;;;;;;5.35;3.45;;;;;;;;;;5049759;28;20040;-80
2022/04/08 03:28:26;;;;;;;10.52;5.95;;;;;;;;;;5049049;28;20432;-81
2022/04/08 03:30:53;;;;;;;10.77;7.80;;;;;;;;;;5049910;28;20558;-80
2022/04/08 03:33:19;;;;;;;12.45;7.50;;;;;;;;;;5033768;28;20057;-80
2022/04/08 03:35:45;;;;;;;7.65;3.65;;;;;;;;;;5042643;28;20076;-81
2022/04/08 03:38:11;;;;;;;13.38;6.20;;;;;;;;;;5029763;28;20083;-81
2022/04/08 03:40:37;;;;;;;8.10;3.33;;;;;;;;;;5044870;28;20048;-81
2022/04/08 03:43:04;;;;;;;7.40;2.17;;;;;;;;;;5049296;28;20057;-81
2022/04/08 03:45:30;;;;;;;4.70;1.63;;;;;;;;;;5055803;28;20054;-81
2022/04/08 03:47:56;;;;;;;47.00;22.38;;;;;;;;;;5049454;28;20047;-81
2022/04/08 03:50:22;;;;;;;13.38;5.88;;;;;;;;;;5049500;28;20036;-80
2022/04/08 03:52:48;;;;;;;8.13;2.80;;;;;;;;;;5047259;28;20025;-80
2022/04/08 03:55:14;;;;;;;6.88;2.80;;;;;;;;;;5046855;28;20029;-81
2022/04/08 03:57:40;;;;;;;17.05;7.47;;;;;;;;;;5033570;28;20052;-81
2022/04/08 04:00:08;;;;;;;13.80;7.32;;;;;;;;;;5040999;28;20039;-80
2022/04/08 04:02:34;;;;;;;27.90;17.58;;;;;;;;;;5049352;28;20032;-80
2022/04/08 04:05:01;;;;;;;25.67;16.15;;;;;;;;;;5048816;28;20493;-81
2022/04/08 04:07:28;;;;;;;23.23;14.68;;;;;;;;;;5031245;28;20026;-81
2022/04/08 04:09:54;;;;;;;21.33;16.85;;;;;;;;;;5049262;28;20033;-80
2022/04/08 04:12:20;;;;;;;11.82;5.13;;;;;;;;;;5066175;28;20035;-81
2022/04/08 04:14:46;;;;;;;18.10;10.65;;;;;;;;;;5067201;28;20094;-81
2022/04/08 04:17:12;;;;;;;13.93;8.20;;;;;;;;;;5049121;28;20068;-81
2022/04/08 04:19:38;;;;;;;11.75;7.25;;;;;;;;;;5049465;28;20044;-80
2022/04/08 04:22:04;;;;;;;12.85;9.07;;;;;;;;;;5049201;28;20029;-81
2022/04/08 04:24:30;;;;;;;8.02;3.50;;;;;;;;;;5049024;28;20044;-81
2022/04/08 04:26:56;;;;;;;15.57;10.02;;;;;;;;;;5041525;28;20040;-81
2022/04/08 04:29:22;;;;;;;11.35;3.92;;;;;;;;;;5044518;28;20664;-80
2022/04/08 04:31:48;;;;;;;16.27;7.95;;;;;;;;;;5032888;28;20031;-81
2022/04/08 04:34:14;;;;;;;26.20;15.90;;;;;;;;;;5029214;28;20082;-80
2022/04/08 04:36:40;;;;;;;36.03;23.27;;;;;;;;;;5046763;28;20041;-81
2022/04/08 04:39:06;;;;;;;21.23;11.20;;;;;;;;;;5049298;28;20489;-81
2022/04/08 04:41:32;;;;;;;13.25;5.20;;;;;;;;;;5057994;28;20032;-81
2022/04/08 04:43:59;;;;;;;10.20;5.28;;;;;;;;;;5048587;28;20065;-80
2022/04/08 04:46:25;;;;;;;11.13;5.65;;;;;;;;;;5047467;28;20029;-80
2022/04/08 04:48:51;;;;;;;12.57;4.65;;;;;;;;;;5048846;28;20087;-80
2022/04/08 04:51:17;;;;;;;4.90;2.55;;;;;;;;;;5048496;28;20459;-80
2022/04/08 04:53:43;;;;;;;5.57;2.42;;;;;;;;;;5052436;28;20397;-81
2022/04/08 04:56:09;;;;;;;19.83;12.20;;;;;;;;;;5052546;28;20036;-80
2022/04/08 04:58:35;;;;;;;10.18;4.30;;;;;;;;;;5051612;28;20032;-80
2022/04/08 05:01:01;;;;;;;8.52;2.83;;;;;;;;;;5052150;28;20028;-80
2022/04/08 05:03:27;;;;;;;6.40;2.97;;;;;;;;;;5052358;28;20033;-80
2022/04/08 05:05:53;;;;;;;6.88;2.20;;;;;;;;;;5051878;28;20060;-81
2022/04/08 05:08:20;;;;;;;6.95;2.85;;;;;;;;;;5052132;28;20052;-80
2022/04/08 05:10:47;;;;;;;14.20;7.00;;;;;;;;;;5032418;28;20429;-81
2022/04/08 05:13:13;;;;;;;14.20;7.70;;;;;;;;;;5056504;28;20112;-80
2022/04/08 05:15:42;;;;;;;7.75;2.55;;;;;;;;;;5051652;28;20509;-81
2022/04/08 05:18:09;;;;;;;9.90;4.35;;;;;;;;;;5052323;28;20040;-80
2022/04/08 05:20:35;;;;;;;11.60;4.80;;;;;;;;;;5043275;28;20467;-80
2022/04/08 05:23:01;;;;;;;7.55;3.55;;;;;;;;;;5049960;28;20134;-81
2022/04/08 05:25:27;;;;;;;5.85;2.47;;;;;;;;;;5049784;28;20028;-80
2022/04/08 05:27:54;;;;;;;5.82;2.25;;;;;;;;;;5050606;28;20033;-80
2022/04/08 05:30:20;;;;;;;11.43;4.10;;;;;;;;;;5043235;28;20064;-80
2022/04/08 05:32:47;;;;;;;29.50;12.45;;;;;;;;;;5032056;28;20033;-80
2022/04/08 05:35:17;;;;;;;17.45;8.45;;;;;;;;;;5049034;28;20029;-80
2022/04/08 05:37:44;;;;;;;66.53;34.58;;;;;;;;;;5047388;28;20068;-80
2022/04/08 05:40:14;;;;;;;31.63;17.08;;;;;;;;;;5043422;28;20064;-81
2022/04/08 05:42:42;;;;;;;23.70;12.30;;;;;;;;;;5051132;28;20041;-80
2022/04/08 05:45:09;;;;;;;16.00;7.43;;;;;;;;;;5051050;28;20029;-80
2022/04/08 05:47:35;;;;;;;10.45;4.30;;;;;;;;;;5050912;28;20037;-80
2022/04/08 05:50:01;;;;;;;7.93;3.47;;;;;;;;;;5051356;28;20106;-81
2022/04/08 05:52:27;;;;;;;11.55;4.28;;;;;;;;;;5047635;28;20060;-80
2022/04/08 05:54:53;;;;;;;11.57;3.90;;;;;;;;;;5034955;28;20052;-80
2022/04/08 05:57:19;;;;;;;26.45;11.88;;;;;;;;;;5048707;28;20048;-81
2022/04/08 05:59:48;;;;;;;21.05;9.82;;;;;;;;;;5047035;28;20095;-81
2022/04/08 06:02:15;;;;;;;21.10;9.35;;;;;;;;;;5035520;28;20034;-80
2022/04/08 06:04:41;;;;;;;10.35;4.40;;;;;;;;;;5035331;28;20120;-80
2022/04/08 06:07:07;;;;;;;11.63;5.20;;;;;;;;;;5049870;28;20029;-80
2022/04/08 06:09:33;;;;;;;12.98;5.53;;;;;;;;;;5051779;28;20060;-80
2022/04/08 06:11:59;;;;;;;8.45;3.92;;;;;;;;;;5050682;28;20025;-80
2022/04/08 06:14:26;;;;;;;10.32;3.97;;;;;;;;;;5041126;28;20044;-80
2022/04/08 06:16:52;;;;;;;7.07;2.60;;;;;;;;;;5047623;28;20941;-81
2022/04/08 06:19:18;;;;;;;4.32;1.85;;;;;;;;;;5043401;28;20037;-80
2022/04/08 06:21:44;;;;;;;13.85;6.43;;;;;;;;;;5045161;28;20068;-81
2022/04/08 06:24:10;;;;;;;13.73;5.38;;;;;;;;;;5035812;28;20047;-80
2022/04/08 06:26:38;;;;;;;6.68;2.25;;;;;;;;;;5044898;28;20104;-80
2022/04/08 06:29:04;;;;;;;11.85;3.15;;;;;;;;;;5031425;28;20033;-81
2022/04/08 06:31:31;;;;;;;6.50;2.53;;;;;;;;;;5030622;28;20037;-80
2022/04/08 06:34:00;;;;;;;15.65;7.35;;;;;;;;;;5045282;28;20044;-80
2022/04/08 06:36:27;;;;;;;12.13;5.47;;;;;;;;;;5042378;28;20033;-81
2022/04/08 06:38:53;;;;;;;9.65;4.45;;;;;;;;;;5050622;28;20040;-80
2022/04/08 06:41:19;;;;;;;17.00;7.22;;;;;;;;;;5036103;28;20503;-80
2022/04/08 06:43:45;;;;;;;7.35;3.40;;;;;;;;;;5048607;28;20574;-80
2022/04/08 06:46:11;;;;;;;9.68;3.88;;;;;;;;;;5038723;28;20029;-80
2022/04/08 06:48:37;;;;;;;12.43;6.22;;;;;;;;;;5040508;28;20101;-80
2022/04/08 06:51:07;;;;;;;14.20;6.80;;;;;;;;;;5050255;28;20092;-80
2022/04/08 06:53:33;;;;;;;13.25;5.97;;;;;;;;;;5037519;28;20608;-80
2022/04/08 06:56:01;;;;;;;13.73;5.82;;;;;;;;;;5061191;28;20020;-80
2022/04/08 06:58:27;;;;;;;7.97;3.25;;;;;;;;;;5040591;28;20029;-80
2022/04/08 07:00:54;;;;;;;6.28;2.70;;;;;;;;;;5038652;28;20061;-81
2022/04/08 07:03:20;;;;;;;7.68;2.13;;;;;;;;;;5039272;28;20090;-81
2022/04/08 07:05:46;;;;;;;4.82;1.92;;;;;;;;;;5050212;28;20036;-80
2022/04/08 07:08:12;;;;;;;11.48;6.15;;;;;;;;;;5046420;28;20044;-80
2022/04/08 07:10:41;;;;;;;20.55;11.27;;;;;;;;;;5033052;28;20035;-81
2022/04/08 07:13:07;;;;;;;17.63;9.00;;;;;;;;;;5037607;28;20041;-81
2022/04/08 07:15:33;;;;;;;8.00;3.28;;;;;;;;;;5049339;28;20071;-81
2022/04/08 07:18:00;;;;;;;5.40;2.78;;;;;;;;;;5029488;28;20045;-80
2022/04/08 07:20:26;;;;;;;6.90;2.20;;;;;;;;;;5044410;28;20074;-81
2022/04/08 07:22:52;;;;;;;6.50;2.28;;;;;;;;;;5049618;28;20036;-81
2022/04/08 07:25:18;;;;;;;12.00;3.35;;;;;;;;;;5047713;28;20109;-81
2022/04/08 07:27:58;;;;;;;8.48;3.53;;;;;;;;;;5030849;28;20160;-80
2022/04/08 07:30:25;;;;;;;31.02;15.02;;;;;;;;;;5044651;28;20025;-80
2022/04/08 07:32:53;;;;;;;19.10;8.27;;;;;;;;;;5049323;28;20037;-80
2022/04/08 07:35:19;;;;;;;18.20;7.78;;;;;;;;;;5047912;28;20128;-81
2022/04/08 07:37:45;;;;;;;18.45;6.97;;;;;;;;;;5048080;28;20086;-80
2022/04/08 07:40:12;;;;;;;10.18;5.05;;;;;;;;;;5048754;28;20151;-79
2022/04/08 07:42:38;;;;;;;3.85;1.05;;;;;;;;;;5044945;28;20029;-80
2022/04/08 07:45:05;;;;;;;2.05;0.43;;;;;;;;;;5030489;28;20041;-80
2022/04/08 07:47:31;;;;;;;3.58;0.80;;;;;;;;;;5049203;28;20036;-80
2022/04/08 07:49:58;;;;;;;4.22;1.10;;;;;;;;;;5047896;28;20492;-80
2022/04/08 07:52:24;;;;;;;2.63;0.73;;;;;;;;;;5047532;28;20025;-80
2022/04/08 07:54:50;;;;;;;1.95;0.50;;;;;;;;;;5044512;28;20040;-80
2022/04/08 07:57:16;;;;;;;2.67;0.70;;;;;;;;;;5043046;28;20041;-80
2022/04/08 07:59:43;;;;;;;1.70;0.30;;;;;;;;;;5043887;28;20037;-80
2022/04/08 08:02:09;;;;;;;3.00;0.70;;;;;;;;;;5048852;28;20033;-80
2022/04/08 08:04:35;;;;;;;2.08;0.50;;;;;;;;;;5049623;28;20037;-80
2022/04/08 08:07:01;;;;;;;1.88;0.50;;;;;;;;;;5046178;28;20576;-80
2022/04/08 08:09:27;;;;;;;3.25;0.65;;;;;;;;;;5031794;28;20132;-80
2022/04/08 08:11:53;;;;;;;1.83;0.50;;;;;;;;;;5040173;28;20130;-80
2022/04/08 08:14:19;;;;;;;0.90;0.30;;;;;;;;;;5049765;28;20469;-80
2022/04/08 08:16:45;;;;;;;3.22;0.90;;;;;;;;;;5036140;28;20048;-80
2022/04/08 08:19:11;;;;;;;2.45;0.47;;;;;;;;;;5038512;28;20037;-81
2022/04/08 08:21:37;;;;;;;2.33;1.17;;;;;;;;;;5042932;28;20040;-80
2022/04/08 08:24:03;;;;;;;7.07;2.45;;;;;;;;;;5042395;28;20041;-80
2022/04/08 08:26:30;;;;;;;5.70;2.63;;;;;;;;;;5051315;28;20036;-80
2022/04/08 08:28:56;;;;;;;5.53;2.40;;;;;;;;;;5061368;28;20170;-80
2022/04/08 08:31:22;;;;;;;5.38;1.40;;;;;;;;;;5037573;28;20030;-80
2022/04/08 08:33:50;;;;;;;4.50;1.80;;;;;;;;;;5053925;28;20090;-80
2022/04/08 08:36:16;;;;;;;15.95;5.85;;;;;;;;;;5044481;28;20031;-80
2022/04/08 08:38:42;;;;;;;6.78;2.75;;;;;;;;;;5051300;28;20079;-80
2022/04/08 08:41:09;;;;;;;6.45;1.45;;;;;;;;;;5051325;28;20037;-80
2022/04/08 08:43:36;;;;;;;3.03;0.90;;;;;;;;;;5049898;28;20095;-80
2022/04/08 08:46:03;;;;;;;4.43;1.00;;;;;;;;;;5050772;28;20037;-80
2022/04/08 08:48:31;;;;;;;4.53;1.00;;;;;;;;;;5052217;28;20140;-80
2022/04/08 08:51:00;;;;;;;2.75;0.55;;;;;;;;;;5044594;28;20029;-80
2022/04/08 08:53:29;;;;;;;4.47;1.10;;;;;;;;;;5045457;28;20487;-80
2022/04/08 08:55:55;;;;;;;5.05;0.82;;;;;;;;;;5041238;28;20025;-80
2022/04/08 08:58:21;;;;;;;5.18;1.35;;;;;;;;;;5043681;28;20048;-80
2022/04/08 09:00:48;;;;;;;4.72;1.27;;;;;;;;;;5047994;28;20692;-80
2022/04/08 09:03:14;;;;;;;2.25;0.35;;;;;;;;;;5048585;28;20043;-80
2022/04/08 09:05:41;;;;;;;4.97;1.02;;;;;;;;;;5049103;28;20395;-80
2022/04/08 09:08:08;;;;;;;3.13;0.98;;;;;;;;;;5051471;28;20040;-80
2022/04/08 09:10:36;;;;;;;4.85;1.20;;;;;;;;;;5049183;28;20028;-80
2022/04/08 09:13:03;;;;;;;4.78;1.60;;;;;;;;;;5048315;28;20036;-80
2022/04/08 09:15:29;;;;;;;4.38;1.52;;;;;;;;;;5044067;28;20037;-80
2022/04/08 09:18:05;;;;;;;7.40;2.20;;;;;;;;;;5042668;28;20083;-80
2022/04/08 09:20:41;;;;;;;5.45;1.52;;;;;;;;;;5043445;28;20382;-80
2022/04/08 09:23:08;;;;;;;6.95;2.03;;;;;;;;;;5050123;28;20040;-80
2022/04/08 09:25:34;;;;;;;6.57;1.42;;;;;;;;;;5055817;28;20033;-80
2022/04/08 09:28:06;;;;;;;5.97;0.88;;;;;;;;;;5051656;28;20040;-80
2022/04/08 09:30:32;;;;;;;4.63;1.20;;;;;;;;;;5051452;28;20106;-80
2022/04/08 09:32:58;;;;;;;4.60;2.03;;;;;;;;;;5047261;28;20074;-80
2022/04/08 09:35:24;;;;;;;4.15;1.20;;;;;;;;;;5051894;28;20025;-80
2022/04/08 09:37:58;;;;;;;4.13;1.45;;;;;;;;;;5051054;28;20041;-80
2022/04/08 09:40:24;;;;;;;3.92;1.10;;;;;;;;;;5055692;28;20029;-80
2022/04/08 09:42:50;;;;;;;10.75;3.63;;;;;;;;;;5040805;28;20493;-80
2022/04/08 09:45:27;;;;;;;5.82;2.08;;;;;;;;;;5045469;28;20044;-79
2022/04/08 09:47:53;;;;;;;9.10;2.10;;;;;;;;;;5043099;28;20040;-80
2022/04/08 09:50:19;;;;;;;2.92;0.68;;;;;;;;;;5049328;28;20029;-80
2022/04/08 09:52:46;;;;;;;3.00;1.10;;;;;;;;;;5036418;28;20095;-80
2022/04/08 09:55:12;;;;;;;3.42;1.13;;;;;;;;;;5043008;28;20055;-80
2022/04/08 09:57:42;;;;;;;1.48;0.60;;;;;;;;;;5050369;28;20117;-79
2022/04/08 10:00:08;;;;;;;2.67;0.50;;;;;;;;;;5046265;28;20072;-80
2022/04/08 10:02:36;;;;;;;3.92;0.98;;;;;;;;;;5042920;28;20038;-80
2022/04/08 10:05:03;;;;;;;4.50;1.60;;;;;;;;;;5049496;28;20127;-80
2022/04/08 10:07:29;;;;;;;6.65;1.70;;;;;;;;;;5051245;28;20090;-80
2022/04/08 10:10:13;;;;;;;4.90;1.40;;;;;;;;;;5050710;28;20116;-80
2022/04/08 10:12:45;;;;;;;4.97;1.35;;;;;;;;;;5048020;28;20032;-80
2022/04/08 10:15:14;;;;;;;4.60;1.10;;;;;;;;;;5049506;28;20216;-80
2022/04/08 10:17:40;;;;;;;4.82;1.25;;;;;;;;;;5049844;28;20036;-80
2022/04/08 10:20:23;;;;;;;4.22;1.30;;;;;;;;;;5050759;28;20025;-80
2022/04/08 10:22:51;;;;;;;3.15;1.10;;;;;;;;;;5050754;28;20056;-80
2022/04/08 10:25:18;;;;;;;3.13;0.90;;;;;;;;;;5047311;28;20065;-80
2022/04/08 10:27:44;;;;;;;2.58;0.75;;;;;;;;;;5054738;28;20382;-80
2022/04/08 10:30:29;;;;;;;3.08;1.15;;;;;;;;;;5048331;28;20025;-81
2022/04/08 10:32:59;;;;;;;2.05;0.60;;;;;;;;;;5043406;28;20920;-80
2022/04/08 10:35:25;;;;;;;2.92;0.70;;;;;;;;;;5046391;28;20121;-81
2022/04/08 10:37:55;;;;;;;3.17;0.95;;;;;;;;;;5033037;28;20112;-80
2022/04/08 10:40:21;;;;;;;6.38;1.90;;;;;;;;;;5034855;28;20033;-80
2022/04/08 10:42:57;;;;;;;4.82;1.83;;;;;;;;;;5048840;28;20038;-80
2022/04/08 10:45:23;;;;;;;6.35;1.83;;;;;;;;;;5046643;28;20465;-80
2022/04/08 10:47:50;;;;;;;4.47;1.40;;;;;;;;;;5027324;28;20390;-80
2022/04/08 10:50:25;;;;;;;6.88;2.08;;;;;;;;;;5042930;28;20027;-80
2022/04/08 10:53:02;;;;;;;5.97;2.20;;;;;;;;;;5037034;28;20037;-81
2022/04/08 10:55:28;;;;;;;7.35;1.98;;;;;;;;;;5050188;28;20033;-80
2022/04/08 10:57:55;;;;;;;4.95;1.23;;;;;;;;;;5039851;28;20095;-81
2022/04/08 11:00:21;;;;;;;5.13;1.80;;;;;;;;;;5038030;28;20044;-80
2022/04/08 11:02:47;;;;;;;4.88;1.30;;;;;;;;;;5045520;28;20052;-80
2022/04/08 11:05:14;;;;;;;6.95;2.22;;;;;;;;;;5040671;28;20052;-80
2022/04/08 11:07:41;;;;;;;4.25;1.65;;;;;;;;;;5037652;28;20139;-80
2022/04/08 11:10:14;;;;;;;5.57;1.88;;;;;;;;;;5045345;28;20037;-81
2022/04/08 11:12:44;;;;;;;3.58;1.55;;;;;;;;;;5050044;28;20037;-81
2022/04/08 11:15:17;;;;;;;2.28;1.23;;;;;;;;;;5043497;28;20418;-80
2022/04/08 11:17:43;;;;;;;4.03;1.23;;;;;;;;;;5039861;28;20087;-80
2022/04/08 11:20:23;;;;;;;4.65;1.92;;;;;;;;;;5048460;28;20063;-80
2022/04/08 11:22:50;;;;;;;7.43;2.28;;;;;;;;;;5043373;28;20040;-80
2022/04/08 11:25:25;;;;;;;1.98;0.60;;;;;;;;;;5042388;28;20035;-80
2022/04/08 11:28:01;;;;;;;2.35;0.50;;;;;;;;;;5030970;28;20045;-80
2022/04/08 11:30:27;;;;;;;4.10;0.80;;;;;;;;;;5029108;28;20444;-79
2022/04/08 11:32:53;;;;;;;3.10;1.00;;;;;;;;;;5038881;28;20128;-80
2022/04/08 11:35:19;;;;;;;2.58;0.88;;;;;;;;;;5050176;28;20095;-80
2022/04/08 11:37:46;;;;;;;4.65;0.90;;;;;;;;;;5049227;28;20041;-81
2022/04/08 11:40:21;;;;;;;10.88;4.20;;;;;;;;;;5048466;28;20040;-80
2022/04/08 11:42:47;;;;;;;6.28;3.13;;;;;;;;;;5036991;28;20037;-80
2022/04/08 11:45:14;;;;;;;8.13;2.95;;;;;;;;;;5033407;28;20030;-80
2022/04/08 11:47:45;;;;;;;2.97;0.90;;;;;;;;;;5039687;28;20047;-80
2022/04/08 11:50:12;;;;;;;3.38;0.90;;;;;;;;;;5047175;28;20063;-80
2022/04/08 11:52:38;;;;;;;5.10;1.80;;;;;;;;;;5047998;28;20056;-80
2022/04/08 11:55:09;;;;;;;5.88;1.30;;;;;;;;;;5037193;28;20034;-80
2022/04/08 11:57:36;;;;;;;5.35;0.98;;;;;;;;;;5032651;28;20026;-80
2022/04/08 12:00:04;;;;;;;2.10;0.55;;;;;;;;;;5033281;28;20040;-80
2022/04/08 12:02:31;;;;;;;1.77;0.50;;;;;;;;;;5047770;28;20521;-80
2022/04/08 12:04:57;;;;;;;2.17;0.60;;;;;;;;;;5034100;28;20037;-79
2022/04/08 12:07:24;;;;;;;1.85;0.57;;;;;;;;;;5045121;28;20029;-80
2022/04/08 12:09:52;;;;;;;1.58;0.50;;;;;;;;;;5041724;28;20045;-80
2022/04/08 12:12:25;;;;;;;2.00;0.60;;;;;;;;;;5042154;28;20055;-80
2022/04/08 12:14:52;;;;;;;3.13;0.68;;;;;;;;;;5048867;28;20394;-80
2022/04/08 12:17:18;;;;;;;2.03;0.50;;;;;;;;;;5045816;28;20064;-80
2022/04/08 12:19:44;;;;;;;2.78;0.50;;;;;;;;;;5044198;28;20044;-80
2022/04/08 12:22:13;;;;;;;1.65;0.47;;;;;;;;;;5039509;28;20107;-80
2022/04/08 12:24:43;;;;;;;1.13;0.40;;;;;;;;;;5045142;28;20037;-80
2022/04/08 12:27:17;;;;;;;4.32;0.70;;;;;;;;;;5042544;28;20116;-80
2022/04/08 12:29:45;;;;;;;2.28;0.93;;;;;;;;;;5048566;28;20483;-79
2022/04/08 12:32:14;;;;;;;1.30;0.52;;;;;;;;;;5034236;28;20351;-80
2022/04/08 12:34:42;;;;;;;2.13;0.50;;;;;;;;;;5040743;28;20112;-79
2022/04/08 12:37:08;;;;;;;6.10;0.60;;;;;;;;;;5046413;28;20025;-79
2022/04/08 12:39:34;;;;;;;3.75;0.90;;;;;;;;;;5053334;28;20037;-80
2022/04/08 12:42:01;;;;;;;3.38;1.23;;;;;;;;;;5045082;28;20091;-80
2022/04/08 12:44:27;;;;;;;5.32;1.30;;;;;;;;;;5048701;28;20048;-79
2022/04/08 12:46:54;;;;;;;4.13;1.20;;;;;;;;;;5043514;28;20075;-80
2022/04/08 12:49:21;;;;;;;2.20;0.70;;;;;;;;;;5049297;28;20056;-80
2022/04/08 12:51:47;;;;;;;2.67;0.68;;;;;;;;;;5048596;28;20028;-80
2022/04/08 12:54:13;;;;;;;2.88;1.10;;;;;;;;;;5048533;28;20041;-80
2022/04/08 12:56:39;;;;;;;5.70;1.20;;;;;;;;;;5045687;28;20026;-80
2022/04/08 12:59:05;;;;;;;2.60;0.98;;;;;;;;;;5039669;28;20133;-80
2022/04/08 13:01:31;;;;;;;2.58;0.52;;;;;;;;;;5028729;28;20056;-80
2022/04/08 13:03:58;;;;;;;2.22;0.30;;;;;;;;;;5037316;28;20850;-79
2022/04/08 13:06:24;;;;;;;3.15;0.80;;;;;;;;;;5028813;28;20100;-80
2022/04/08 13:08:50;;;;;;;3.05;1.02;;;;;;;;;;5054155;28;20477;-79
2022/04/08 13:11:17;;;;;;;2.72;1.10;;;;;;;;;;5044510;28;20025;-80
2022/04/08 13:13:43;;;;;;;3.70;1.25;;;;;;;;;;5051763;28;20055;-79
2022/04/08 13:16:09;;;;;;;4.13;1.10;;;;;;;;;;5048475;28;20032;-80
2022/04/08 13:18:35;;;;;;;4.03;1.88;;;;;;;;;;5051418;28;20037;-80
2022/04/08 13:21:01;;;;;;;5.10;1.60;;;;;;;;;;5052232;28;20033;-79
2022/04/08 13:23:27;;;;;;;6.55;3.47;;;;;;;;;;5042497;28;20087;-80
2022/04/08 13:25:53;;;;;;;7.22;5.22;;;;;;;;;;5051571;28;20035;-79
2022/04/08 13:28:20;;;;;;;5.07;2.80;;;;;;;;;;5034934;28;20037;-79
2022/04/08 13:30:46;;;;;;;2.92;1.00;;;;;;;;;;5042038;28;20025;-80
2022/04/08 13:33:12;;;;;;;2.88;0.85;;;;;;;;;;5037969;28;20123;-80
2022/04/08 13:35:38;;;;;;;0.47;0.10;;;;;;;;;;5051644;28;20033;-79
2022/04/08 13:38:04;;;;;;;2.70;0.85;;;;;;;;;;5047202;28;20041;-80
2022/04/08 13:40:30;;;;;;;1.35;0.28;;;;;;;;;;5051607;28;20049;-79
2022/04/08 13:42:58;;;;;;;1.95;0.32;;;;;;;;;;5042959;28;20083;-79
2022/04/08 13:45:24;;;;;;;0.95;0.20;;;;;;;;;;5040234;28;20044;-79
2022/04/08 13:47:51;;;;;;;3.97;0.73;;;;;;;;;;5046277;28;20045;-79
2022/04/08 13:50:17;;;;;;;0.60;0.30;;;;;;;;;;5051337;28;20479;-78
2022/04/08 13:52:43;;;;;;;0.65;0.20;;;;;;;;;;5060754;28;20048;-79
2022/04/08 13:55:10;;;;;;;4.45;0.52;;;;;;;;;;5050943;28;20064;-80
2022/04/08 13:57:36;;;;;;;2.00;0.22;;;;;;;;;;5051370;28;20413;-80
2022/04/08 14:00:02;;;;;;;0.68;0.10;;;;;;;;;;5033212;28;20521;-80
2022/04/08 14:02:28;;;;;;;1.20;0.10;;;;;;;;;;5047919;28;20025;-80
2022/04/08 14:04:55;;;;;;;0.45;0.20;;;;;;;;;;5049180;28;20029;-80
2022/04/08 14:07:21;;;;;;;2.58;0.30;;;;;;;;;;5043816;28;20524;-80
2022/04/08 14:09:47;;;;;;;2.70;0.28;;;;;;;;;;5034872;28;20026;-80
2022/04/08 14:12:13;;;;;;;0.55;0.17;;;;;;;;;;5048252;28;20028;-80
2022/04/08 14:14:41;;;;;;;1.30;0.10;;;;;;;;;;5034390;28;20037;-80
2022/04/08 14:17:07;;;;;;;1.10;0.20;;;;;;;;;;5050095;28;20025;-80
2022/04/08 14:19:33;;;;;;;1.27;0.20;;;;;;;;;;5050583;28;20690;-79
2022/04/08 14:22:00;;;;;;;2.25;0.20;;;;;;;;;;5041755;28;20025;-80
2022/04/08 14:24:26;;;;;;;0.73;0.20;;;;;;;;;;5050702;28;20041;-80
2022/04/08 14:26:52;;;;;;;1.02;0.20;;;;;;;;;;5050181;28;20029;-79
2022/04/08 14:29:18;;;;;;;0.77;0.20;;;;;;;;;;5040509;28;20098;-80
2022/04/08 14:31:44;;;;;;;1.00;0.20;;;;;;;;;;5043854;28;20028;-80
2022/04/08 14:34:11;;;;;;;0.70;0.20;;;;;;;;;;5047935;28;20033;-80
2022/04/08 14:36:39;;;;;;;1.00;0.20;;;;;;;;;;5038819;28;20029;-80
2022/04/08 14:39:06;;;;;;;1.67;0.20;;;;;;;;;;5051194;28;20508;-80